Red Hook, NY

3:15 PM EDT on May 06, 2015 (GMT -0400)
Dutchess County | | Change Station
CLOSE
Current Station
Airport
Location: Poughkeepsie,
Elevation: 164 ft
Nearby Weather Stations

Elev 164 ft 41.63 °N, 73.88 °W | Updated 22 minutes ago

Mostly Cloudy
Mostly Cloudy
69 °F
Feels Like 69 °F
N
0
Wind Variable Wind from North

Today
High -- | Low -- °F
--% Chance of Precip.
Yesterday
High -- | Low -- °F
Precip. -- in
5:45 AM 7:59 PM
Waning Gibbous, 93% visible
Pressure 30.24 in
Visibility 10.0 miles
Clouds Mostly Cloudy 12000 ft
Dew Point 41 °F
Humidity 36%
Rainfall 0.02 in
Snow Depth Not available.
UV 4 out of 12
Pollen 10.00 out of 12
Air Quality Not available.
Flu Activity Widespread
METAR KPOU 061853Z 00000KT 10SM BKN120 21/05 A3025 RMK AO2 SLP240 T02060050

More Conditions Fewer Conditions

Pressure 30.24 in
Visibility 10.0 miles
Clouds Mostly Cloudy 12000 ft
Dew Point 41 °F
Humidity 36%
Rainfall 0.02 in
Snow Depth Not available.
UV 4 out of 12
Pollen 10.00 out of 12
Air Quality Not available.
Flu Activity Widespread
METAR KPOU 061853Z 00000KT 10SM BKN120 21/05 A3025 RMK AO2 SLP240 T02060050

More Conditions Fewer Conditions

10-Day Weather Forecast

Almanac

Astronomy

May. 06, 2015 Rise Set
Actual Time
Civil Twilight
Nautical Twilight
Astronomical Twilight
Moon
Length of Visible Light
Length of Day
Tomorrow will be .
, % of the Moon is Illuminated

Today's Extremes

State Highs State Lows

Community

WunderPhotos

Upload Photos

1,818,994 photos uploaded!

WunderBlogs® & News

Nearby

Air Quality

  Air Quality AQ Index Pollutant
Not available.

Snow Depth

Station Depth Elevation

Earthquake Activity

City Distance Mag. Time & Date
Minimum magnitude displayed is 2.5.

Coastal Water Temperatures

Place Temperature

Stations

Nearby Weather Stations

Station Location Temp. Windchill Dew Point Humidity Wind Precip. Elev Updated Type